sensor_id;sensor_type;location;lat;lon;timestamp;P1;durP1;ratioP1;P2;durP2;ratioP2
18443;SDS011;9350;53.176;8.194;2023-12-14T00:02:12;5.10;;;3.70;;
18443;SDS011;9350;53.176;8.194;2023-12-14T00:04:40;5.68;;;3.97;;
18443;SDS011;9350;53.176;8.194;2023-12-14T00:07:08;4.32;;;3.50;;
18443;SDS011;9350;53.176;8.194;2023-12-14T00:09:35;5.75;;;4.03;;
18443;SDS011;9350;53.176;8.194;2023-12-14T00:12:02;8.32;;;4.30;;
18443;SDS011;9350;53.176;8.194;2023-12-14T00:14:29;5.47;;;3.83;;
18443;SDS011;9350;53.176;8.194;2023-12-14T00:16:56;5.65;;;3.85;;
18443;SDS011;9350;53.176;8.194;2023-12-14T00:19:24;5.78;;;4.30;;
18443;SDS011;9350;53.176;8.194;2023-12-14T00:21:51;4.47;;;3.70;;
18443;SDS011;9350;53.176;8.194;2023-12-14T00:24:19;6.28;;;3.65;;
18443;SDS011;9350;53.176;8.194;2023-12-14T00:26:45;6.72;;;3.80;;
18443;SDS011;9350;53.176;8.194;2023-12-14T00:29:12;8.05;;;4.68;;
18443;SDS011;9350;53.176;8.194;2023-12-14T00:31:39;6.72;;;3.78;;
18443;SDS011;9350;53.176;8.194;2023-12-14T00:34:06;3.67;;;3.28;;
18443;SDS011;9350;53.176;8.194;2023-12-14T00:36:32;4.75;;;3.50;;
18443;SDS011;9350;53.176;8.194;2023-12-14T00:38:59;6.63;;;3.70;;
18443;SDS011;9350;53.176;8.194;2023-12-14T00:41:27;5.47;;;3.67;;
18443;SDS011;9350;53.176;8.194;2023-12-14T00:43:55;4.57;;;3.80;;
18443;SDS011;9350;53.176;8.194;2023-12-14T00:46:21;6.20;;;3.70;;
18443;SDS011;9350;53.176;8.194;2023-12-14T00:48:49;4.85;;;4.07;;
18443;SDS011;9350;53.176;8.194;2023-12-14T00:51:16;5.43;;;3.50;;
18443;SDS011;9350;53.176;8.194;2023-12-14T00:53:43;5.93;;;3.58;;
18443;SDS011;9350;53.176;8.194;2023-12-14T00:56:10;5.78;;;3.70;;
18443;SDS011;9350;53.176;8.194;2023-12-14T00:58:38;5.80;;;3.70;;
18443;SDS011;9350;53.176;8.194;2023-12-14T01:01:05;7.28;;;4.18;;
18443;SDS011;9350;53.176;8.194;2023-12-14T01:03:31;5.28;;;3.67;;
18443;SDS011;9350;53.176;8.194;2023-12-14T01:05:58;6.03;;;4.00;;
18443;SDS011;9350;53.176;8.194;2023-12-14T01:08:25;9.18;;;4.38;;
18443;SDS011;9350;53.176;8.194;2023-12-14T01:10:52;7.18;;;4.30;;
18443;SDS011;9350;53.176;8.194;2023-12-14T01:13:18;5.45;;;4.20;;
18443;SDS011;9350;53.176;8.194;2023-12-14T01:15:47;5.32;;;3.88;;
18443;SDS011;9350;53.176;8.194;2023-12-14T01:18:13;5.40;;;3.63;;
18443;SDS011;9350;53.176;8.194;2023-12-14T01:20:40;7.47;;;3.78;;
18443;SDS011;9350;53.176;8.194;2023-12-14T01:23:07;6.32;;;3.95;;
18443;SDS011;9350;53.176;8.194;2023-12-14T01:25:35;5.53;;;4.10;;
18443;SDS011;9350;53.176;8.194;2023-12-14T01:28:02;6.28;;;4.25;;
18443;SDS011;9350;53.176;8.194;2023-12-14T01:30:29;9.02;;;4.13;;
18443;SDS011;9350;53.176;8.194;2023-12-14T01:32:57;6.05;;;3.80;;
18443;SDS011;9350;53.176;8.194;2023-12-14T01:35:24;6.75;;;3.92;;
18443;SDS011;9350;53.176;8.194;2023-12-14T01:37:51;5.78;;;3.97;;
18443;SDS011;9350;53.176;8.194;2023-12-14T01:40:18;7.45;;;3.70;;
18443;SDS011;9350;53.176;8.194;2023-12-14T01:42:45;5.97;;;3.80;;
18443;SDS011;9350;53.176;8.194;2023-12-14T01:45:12;5.93;;;4.18;;
18443;SDS011;9350;53.176;8.194;2023-12-14T01:47:40;8.02;;;4.15;;
18443;SDS011;9350;53.176;8.194;2023-12-14T01:50:09;7.30;;;4.05;;
18443;SDS011;9350;53.176;8.194;2023-12-14T01:52:36;5.85;;;3.90;;
18443;SDS011;9350;53.176;8.194;2023-12-14T01:55:03;6.90;;;3.92;;
18443;SDS011;9350;53.176;8.194;2023-12-14T01:57:30;4.75;;;3.08;;
18443;SDS011;9350;53.176;8.194;2023-12-14T01:59:57;6.03;;;3.47;;
18443;SDS011;9350;53.176;8.194;2023-12-14T02:02:24;6.13;;;3.97;;
18443;SDS011;9350;53.176;8.194;2023-12-14T02:04:51;8.48;;;4.05;;
18443;SDS011;9350;53.176;8.194;2023-12-14T02:07:19;6.45;;;4.00;;
18443;SDS011;9350;53.176;8.194;2023-12-14T02:09:45;6.00;;;3.80;;
18443;SDS011;9350;53.176;8.194;2023-12-14T02:12:12;7.60;;;3.60;;
18443;SDS011;9350;53.176;8.194;2023-12-14T02:14:39;7.55;;;3.95;;
18443;SDS011;9350;53.176;8.194;2023-12-14T02:17:06;6.28;;;3.80;;
18443;SDS011;9350;53.176;8.194;2023-12-14T02:19:33;9.18;;;3.95;;
18443;SDS011;9350;53.176;8.194;2023-12-14T02:21:59;6.88;;;3.90;;
18443;SDS011;9350;53.176;8.194;2023-12-14T02:24:27;6.70;;;3.83;;
18443;SDS011;9350;53.176;8.194;2023-12-14T02:26:55;7.55;;;4.10;;
18443;SDS011;9350;53.176;8.194;2023-12-14T02:29:22;7.00;;;4.10;;
18443;SDS011;9350;53.176;8.194;2023-12-14T02:31:49;5.70;;;4.15;;
18443;SDS011;9350;53.176;8.194;2023-12-14T02:34:16;6.75;;;4.13;;
18443;SDS011;9350;53.176;8.194;2023-12-14T02:36:44;11.88;;;4.32;;
18443;SDS011;9350;53.176;8.194;2023-12-14T02:39:10;9.07;;;4.45;;
18443;SDS011;9350;53.176;8.194;2023-12-14T02:41:38;9.75;;;4.53;;
18443;SDS011;9350;53.176;8.194;2023-12-14T02:44:05;8.18;;;4.53;;
18443;SDS011;9350;53.176;8.194;2023-12-14T02:46:32;6.82;;;4.45;;
18443;SDS011;9350;53.176;8.194;2023-12-14T02:48:59;8.63;;;4.60;;
18443;SDS011;9350;53.176;8.194;2023-12-14T02:51:25;9.30;;;4.80;;
18443;SDS011;9350;53.176;8.194;2023-12-14T02:53:52;11.57;;;4.93;;
18443;SDS011;9350;53.176;8.194;2023-12-14T02:56:22;10.73;;;4.68;;
18443;SDS011;9350;53.176;8.194;2023-12-14T02:58:50;12.82;;;4.57;;
18443;SDS011;9350;53.176;8.194;2023-12-14T03:01:18;9.75;;;4.93;;
18443;SDS011;9350;53.176;8.194;2023-12-14T03:03:46;9.13;;;4.65;;
18443;SDS011;9350;53.176;8.194;2023-12-14T03:06:13;10.35;;;4.60;;
18443;SDS011;9350;53.176;8.194;2023-12-14T03:08:40;7.88;;;4.57;;
18443;SDS011;9350;53.176;8.194;2023-12-14T03:11:06;8.65;;;5.28;;
18443;SDS011;9350;53.176;8.194;2023-12-14T03:13:33;9.70;;;4.55;;
18443;SDS011;9350;53.176;8.194;2023-12-14T03:16:01;10.48;;;5.00;;
18443;SDS011;9350;53.176;8.194;2023-12-14T03:18:28;9.55;;;5.43;;
18443;SDS011;9350;53.176;8.194;2023-12-14T03:20:55;13.70;;;5.25;;
18443;SDS011;9350;53.176;8.194;2023-12-14T03:23:22;10.35;;;5.35;;
18443;SDS011;9350;53.176;8.194;2023-12-14T03:25:48;12.60;;;5.95;;
18443;SDS011;9350;53.176;8.194;2023-12-14T03:28:15;11.73;;;5.40;;
18443;SDS011;9350;53.176;8.194;2023-12-14T03:30:42;11.93;;;6.07;;
18443;SDS011;9350;53.176;8.194;2023-12-14T03:33:10;12.85;;;5.68;;
18443;SDS011;9350;53.176;8.194;2023-12-14T03:35:37;11.20;;;6.20;;
18443;SDS011;9350;53.176;8.194;2023-12-14T03:38:06;7.97;;;5.35;;
18443;SDS011;9350;53.176;8.194;2023-12-14T03:40:33;9.27;;;5.78;;
18443;SDS011;9350;53.176;8.194;2023-12-14T03:43:00;12.25;;;6.43;;
18443;SDS011;9350;53.176;8.194;2023-12-14T03:45:28;11.50;;;6.03;;
18443;SDS011;9350;53.176;8.194;2023-12-14T03:47:55;11.57;;;6.32;;
18443;SDS011;9350;53.176;8.194;2023-12-14T03:50:23;13.27;;;5.93;;
18443;SDS011;9350;53.176;8.194;2023-12-14T03:52:50;10.82;;;5.82;;
18443;SDS011;9350;53.176;8.194;2023-12-14T03:55:17;11.88;;;6.18;;
18443;SDS011;9350;53.176;8.194;2023-12-14T03:57:43;15.32;;;6.10;;
18443;SDS011;9350;53.176;8.194;2023-12-14T04:00:11;9.85;;;6.15;;
18443;SDS011;9350;53.176;8.194;2023-12-14T04:02:39;15.00;;;6.30;;
18443;SDS011;9350;53.176;8.194;2023-12-14T04:05:06;9.32;;;5.85;;
18443;SDS011;9350;53.176;8.194;2023-12-14T04:07:35;13.18;;;6.60;;
18443;SDS011;9350;53.176;8.194;2023-12-14T04:10:05;11.20;;;5.97;;
18443;SDS011;9350;53.176;8.194;2023-12-14T04:12:33;11.63;;;6.50;;
18443;SDS011;9350;53.176;8.194;2023-12-14T04:14:59;10.60;;;6.40;;
18443;SDS011;9350;53.176;8.194;2023-12-14T04:17:26;11.35;;;6.40;;
18443;SDS011;9350;53.176;8.194;2023-12-14T04:19:53;8.88;;;5.80;;
18443;SDS011;9350;53.176;8.194;2023-12-14T04:22:20;16.27;;;6.03;;
18443;SDS011;9350;53.176;8.194;2023-12-14T04:24:48;12.05;;;5.95;;
18443;SDS011;9350;53.176;8.194;2023-12-14T04:27:15;10.38;;;5.90;;
18443;SDS011;9350;53.176;8.194;2023-12-14T04:29:42;14.43;;;6.47;;
18443;SDS011;9350;53.176;8.194;2023-12-14T04:32:08;12.35;;;6.18;;
18443;SDS011;9350;53.176;8.194;2023-12-14T04:34:36;15.32;;;6.07;;
18443;SDS011;9350;53.176;8.194;2023-12-14T04:37:03;13.80;;;6.60;;
18443;SDS011;9350;53.176;8.194;2023-12-14T04:39:30;10.43;;;6.57;;
18443;SDS011;9350;53.176;8.194;2023-12-14T04:41:58;13.35;;;6.75;;
18443;SDS011;9350;53.176;8.194;2023-12-14T04:44:25;13.52;;;7.35;;
18443;SDS011;9350;53.176;8.194;2023-12-14T04:46:51;15.32;;;7.93;;
18443;SDS011;9350;53.176;8.194;2023-12-14T04:49:18;15.13;;;8.07;;
18443;SDS011;9350;53.176;8.194;2023-12-14T04:51:45;21.35;;;7.70;;
18443;SDS011;9350;53.176;8.194;2023-12-14T04:54:12;16.80;;;7.82;;
18443;SDS011;9350;53.176;8.194;2023-12-14T04:56:39;16.77;;;8.13;;
18443;SDS011;9350;53.176;8.194;2023-12-14T04:59:08;16.58;;;8.25;;
18443;SDS011;9350;53.176;8.194;2023-12-14T05:01:34;19.95;;;7.85;;
18443;SDS011;9350;53.176;8.194;2023-12-14T05:04:01;13.40;;;7.32;;
18443;SDS011;9350;53.176;8.194;2023-12-14T05:06:28;15.77;;;7.60;;
18443;SDS011;9350;53.176;8.194;2023-12-14T05:08:58;20.40;;;8.23;;
18443;SDS011;9350;53.176;8.194;2023-12-14T05:11:27;21.60;;;7.80;;
18443;SDS011;9350;53.176;8.194;2023-12-14T05:13:53;21.23;;;9.40;;
18443;SDS011;9350;53.176;8.194;2023-12-14T05:16:22;14.85;;;7.93;;
18443;SDS011;9350;53.176;8.194;2023-12-14T05:18:51;18.88;;;8.45;;
18443;SDS011;9350;53.176;8.194;2023-12-14T05:21:18;14.68;;;8.18;;
18443;SDS011;9350;53.176;8.194;2023-12-14T05:23:45;16.35;;;7.63;;
18443;SDS011;9350;53.176;8.194;2023-12-14T05:26:12;17.65;;;7.95;;
18443;SDS011;9350;53.176;8.194;2023-12-14T05:28:39;17.35;;;7.82;;
18443;SDS011;9350;53.176;8.194;2023-12-14T05:31:05;16.67;;;8.88;;
18443;SDS011;9350;53.176;8.194;2023-12-14T05:33:37;20.33;;;8.45;;
18443;SDS011;9350;53.176;8.194;2023-12-14T05:36:04;14.10;;;8.05;;
18443;SDS011;9350;53.176;8.194;2023-12-14T05:38:35;15.60;;;8.00;;
18443;SDS011;9350;53.176;8.194;2023-12-14T05:41:02;17.33;;;8.63;;
18443;SDS011;9350;53.176;8.194;2023-12-14T05:43:29;20.08;;;9.02;;
18443;SDS011;9350;53.176;8.194;2023-12-14T05:45:55;23.92;;;9.20;;
18443;SDS011;9350;53.176;8.194;2023-12-14T05:48:22;17.63;;;8.85;;
18443;SDS011;9350;53.176;8.194;2023-12-14T05:50:51;18.08;;;8.55;;
18443;SDS011;9350;53.176;8.194;2023-12-14T05:53:17;17.88;;;8.55;;
18443;SDS011;9350;53.176;8.194;2023-12-14T05:55:44;20.40;;;8.02;;
18443;SDS011;9350;53.176;8.194;2023-12-14T05:58:11;21.33;;;9.43;;
18443;SDS011;9350;53.176;8.194;2023-12-14T06:00:38;22.30;;;9.23;;
18443;SDS011;9350;53.176;8.194;2023-12-14T06:03:06;19.83;;;8.43;;
18443;SDS011;9350;53.176;8.194;2023-12-14T06:05:33;22.65;;;9.13;;
18443;SDS011;9350;53.176;8.194;2023-12-14T06:08:01;16.80;;;9.05;;
18443;SDS011;9350;53.176;8.194;2023-12-14T06:10:27;19.55;;;8.05;;
18443;SDS011;9350;53.176;8.194;2023-12-14T06:12:55;25.45;;;8.73;;
18443;SDS011;9350;53.176;8.194;2023-12-14T06:15:22;19.35;;;8.65;;
18443;SDS011;9350;53.176;8.194;2023-12-14T06:17:49;17.48;;;7.97;;
18443;SDS011;9350;53.176;8.194;2023-12-14T06:20:16;21.95;;;8.98;;
18443;SDS011;9350;53.176;8.194;2023-12-14T06:22:43;18.80;;;8.57;;
18443;SDS011;9350;53.176;8.194;2023-12-14T06:25:11;21.58;;;8.63;;
18443;SDS011;9350;53.176;8.194;2023-12-14T06:27:37;22.90;;;8.77;;
18443;SDS011;9350;53.176;8.194;2023-12-14T06:30:05;24.42;;;8.63;;
18443;SDS011;9350;53.176;8.194;2023-12-14T06:32:34;24.77;;;8.93;;
18443;SDS011;9350;53.176;8.194;2023-12-14T06:35:01;20.85;;;9.07;;
18443;SDS011;9350;53.176;8.194;2023-12-14T06:37:28;24.42;;;9.05;;
18443;SDS011;9350;53.176;8.194;2023-12-14T06:39:55;21.15;;;9.43;;
18443;SDS011;9350;53.176;8.194;2023-12-14T06:42:23;16.23;;;9.02;;
18443;SDS011;9350;53.176;8.194;2023-12-14T06:44:49;21.67;;;8.38;;
18443;SDS011;9350;53.176;8.194;2023-12-14T06:47:16;19.65;;;9.20;;
18443;SDS011;9350;53.176;8.194;2023-12-14T06:49:43;24.45;;;10.20;;
18443;SDS011;9350;53.176;8.194;2023-12-14T06:52:10;18.27;;;9.65;;
18443;SDS011;9350;53.176;8.194;2023-12-14T06:54:36;18.42;;;8.63;;
18443;SDS011;9350;53.176;8.194;2023-12-14T06:57:03;20.25;;;9.02;;
18443;SDS011;9350;53.176;8.194;2023-12-14T06:59:32;18.48;;;9.13;;
18443;SDS011;9350;53.176;8.194;2023-12-14T07:01:58;22.65;;;9.55;;
18443;SDS011;9350;53.176;8.194;2023-12-14T07:04:25;20.30;;;9.30;;
18443;SDS011;9350;53.176;8.194;2023-12-14T07:06:52;19.35;;;8.88;;
18443;SDS011;9350;53.176;8.194;2023-12-14T07:09:19;17.85;;;8.52;;
18443;SDS011;9350;53.176;8.194;2023-12-14T07:11:46;16.83;;;9.25;;
18443;SDS011;9350;53.176;8.194;2023-12-14T07:14:13;21.63;;;9.30;;
18443;SDS011;9350;53.176;8.194;2023-12-14T07:16:41;21.45;;;9.10;;
18443;SDS011;9350;53.176;8.194;2023-12-14T07:19:08;20.58;;;9.20;;
18443;SDS011;9350;53.176;8.194;2023-12-14T07:21:36;26.50;;;8.95;;
18443;SDS011;9350;53.176;8.194;2023-12-14T07:24:03;22.80;;;9.88;;
18443;SDS011;9350;53.176;8.194;2023-12-14T07:26:30;25.00;;;9.50;;
18443;SDS011;9350;53.176;8.194;2023-12-14T07:28:57;18.52;;;8.73;;
18443;SDS011;9350;53.176;8.194;2023-12-14T07:31:23;21.77;;;9.68;;
18443;SDS011;9350;53.176;8.194;2023-12-14T07:33:53;21.10;;;9.68;;
18443;SDS011;9350;53.176;8.194;2023-12-14T07:36:20;19.65;;;9.27;;
18443;SDS011;9350;53.176;8.194;2023-12-14T07:38:48;21.42;;;8.70;;
18443;SDS011;9350;53.176;8.194;2023-12-14T07:41:15;22.85;;;9.70;;
18443;SDS011;9350;53.176;8.194;2023-12-14T07:43:42;19.30;;;9.23;;
18443;SDS011;9350;53.176;8.194;2023-12-14T07:46:08;19.45;;;8.88;;
18443;SDS011;9350;53.176;8.194;2023-12-14T07:48:35;17.98;;;9.15;;
18443;SDS011;9350;53.176;8.194;2023-12-14T07:51:04;20.42;;;9.23;;
18443;SDS011;9350;53.176;8.194;2023-12-14T07:53:30;25.67;;;9.50;;
18443;SDS011;9350;53.176;8.194;2023-12-14T07:55:57;20.40;;;9.23;;
18443;SDS011;9350;53.176;8.194;2023-12-14T07:58:27;17.85;;;9.77;;
18443;SDS011;9350;53.176;8.194;2023-12-14T08:00:54;22.10;;;9.07;;
18443;SDS011;9350;53.176;8.194;2023-12-14T08:03:21;20.08;;;9.00;;
18443;SDS011;9350;53.176;8.194;2023-12-14T08:05:48;17.45;;;8.93;;
18443;SDS011;9350;53.176;8.194;2023-12-14T08:08:16;22.00;;;9.50;;
18443;SDS011;9350;53.176;8.194;2023-12-14T08:10:43;20.33;;;9.07;;
18443;SDS011;9350;53.176;8.194;2023-12-14T08:13:09;19.15;;;9.52;;
18443;SDS011;9350;53.176;8.194;2023-12-14T08:15:36;19.50;;;9.15;;
18443;SDS011;9350;53.176;8.194;2023-12-14T08:18:03;19.40;;;9.27;;
18443;SDS011;9350;53.176;8.194;2023-12-14T08:20:30;23.48;;;9.25;;
18443;SDS011;9350;53.176;8.194;2023-12-14T08:22:57;19.45;;;9.30;;
18443;SDS011;9350;53.176;8.194;2023-12-14T08:25:25;16.58;;;9.30;;
18443;SDS011;9350;53.176;8.194;2023-12-14T08:27:52;18.30;;;8.73;;
18443;SDS011;9350;53.176;8.194;2023-12-14T08:30:19;15.00;;;9.02;;
18443;SDS011;9350;53.176;8.194;2023-12-14T08:32:46;16.75;;;8.68;;
18443;SDS011;9350;53.176;8.194;2023-12-14T08:35:13;18.88;;;7.95;;
18443;SDS011;9350;53.176;8.194;2023-12-14T08:37:40;16.45;;;8.20;;
18443;SDS011;9350;53.176;8.194;2023-12-14T08:40:07;17.77;;;8.60;;
18443;SDS011;9350;53.176;8.194;2023-12-14T08:42:36;21.38;;;8.88;;
18443;SDS011;9350;53.176;8.194;2023-12-14T08:45:02;17.70;;;8.95;;
18443;SDS011;9350;53.176;8.194;2023-12-14T08:47:30;17.52;;;9.07;;
18443;SDS011;9350;53.176;8.194;2023-12-14T08:49:57;24.05;;;8.73;;
18443;SDS011;9350;53.176;8.194;2023-12-14T08:52:23;17.70;;;8.68;;
18443;SDS011;9350;53.176;8.194;2023-12-14T08:54:50;20.92;;;8.73;;
18443;SDS011;9350;53.176;8.194;2023-12-14T08:57:17;20.17;;;8.60;;
18443;SDS011;9350;53.176;8.194;2023-12-14T08:59:45;16.02;;;8.70;;
18443;SDS011;9350;53.176;8.194;2023-12-14T09:02:12;18.50;;;8.50;;
18443;SDS011;9350;53.176;8.194;2023-12-14T09:04:38;20.77;;;8.82;;
18443;SDS011;9350;53.176;8.194;2023-12-14T09:07:05;20.55;;;9.02;;
18443;SDS011;9350;53.176;8.194;2023-12-14T09:09:32;18.70;;;8.30;;
18443;SDS011;9350;53.176;8.194;2023-12-14T09:11:59;18.90;;;8.57;;
18443;SDS011;9350;53.176;8.194;2023-12-14T09:14:25;20.73;;;8.20;;
18443;SDS011;9350;53.176;8.194;2023-12-14T09:16:54;14.88;;;8.50;;
18443;SDS011;9350;53.176;8.194;2023-12-14T09:19:20;19.75;;;9.45;;
18443;SDS011;9350;53.176;8.194;2023-12-14T09:21:47;16.23;;;8.90;;
18443;SDS011;9350;53.176;8.194;2023-12-14T09:24:14;19.30;;;8.88;;
18443;SDS011;9350;53.176;8.194;2023-12-14T09:26:41;17.80;;;8.05;;
18443;SDS011;9350;53.176;8.194;2023-12-14T09:29:08;16.67;;;8.27;;
18443;SDS011;9350;53.176;8.194;2023-12-14T09:31:34;16.55;;;8.82;;
18443;SDS011;9350;53.176;8.194;2023-12-14T09:34:03;16.27;;;7.82;;
18443;SDS011;9350;53.176;8.194;2023-12-14T09:36:30;20.35;;;8.48;;
18443;SDS011;9350;53.176;8.194;2023-12-14T09:38:57;17.77;;;8.05;;
18443;SDS011;9350;53.176;8.194;2023-12-14T09:41:23;17.33;;;7.93;;
18443;SDS011;9350;53.176;8.194;2023-12-14T09:43:50;16.42;;;8.93;;
18443;SDS011;9350;53.176;8.194;2023-12-14T09:46:18;17.33;;;7.80;;
18443;SDS011;9350;53.176;8.194;2023-12-14T09:48:47;14.77;;;8.05;;
18443;SDS011;9350;53.176;8.194;2023-12-14T09:51:17;16.27;;;7.88;;
18443;SDS011;9350;53.176;8.194;2023-12-14T09:53:44;19.58;;;8.32;;
18443;SDS011;9350;53.176;8.194;2023-12-14T09:56:11;15.63;;;8.18;;
18443;SDS011;9350;53.176;8.194;2023-12-14T09:58:38;18.17;;;7.88;;
18443;SDS011;9350;53.176;8.194;2023-12-14T10:03:50;20.15;;;8.25;;
18443;SDS011;9350;53.176;8.194;2023-12-14T10:06:34;18.45;;;8.68;;
18443;SDS011;9350;53.176;8.194;2023-12-14T10:09:00;24.23;;;8.40;;
18443;SDS011;9350;53.176;8.194;2023-12-14T10:11:28;16.20;;;8.50;;
18443;SDS011;9350;53.176;8.194;2023-12-14T10:13:55;17.60;;;8.10;;
18443;SDS011;9350;53.176;8.194;2023-12-14T10:16:28;20.38;;;8.73;;
18443;SDS011;9350;53.176;8.194;2023-12-14T10:18:56;15.23;;;7.97;;
18443;SDS011;9350;53.176;8.194;2023-12-14T10:21:23;16.65;;;7.97;;
18443;SDS011;9350;53.176;8.194;2023-12-14T10:23:53;20.00;;;8.60;;
18443;SDS011;9350;53.176;8.194;2023-12-14T10:26:22;17.95;;;8.57;;
18443;SDS011;9350;53.176;8.194;2023-12-14T10:28:49;18.70;;;8.43;;
18443;SDS011;9350;53.176;8.194;2023-12-14T10:31:16;15.75;;;8.60;;
18443;SDS011;9350;53.176;8.194;2023-12-14T10:33:44;16.42;;;8.27;;
18443;SDS011;9350;53.176;8.194;2023-12-14T10:36:12;13.02;;;7.28;;
18443;SDS011;9350;53.176;8.194;2023-12-14T10:38:39;16.73;;;7.43;;
18443;SDS011;9350;53.176;8.194;2023-12-14T10:41:10;15.95;;;7.78;;
18443;SDS011;9350;53.176;8.194;2023-12-14T10:43:39;15.27;;;8.25;;
18443;SDS011;9350;53.176;8.194;2023-12-14T10:46:09;19.70;;;8.45;;
18443;SDS011;9350;53.176;8.194;2023-12-14T10:48:36;17.10;;;8.32;;
18443;SDS011;9350;53.176;8.194;2023-12-14T10:51:06;16.60;;;8.18;;
18443;SDS011;9350;53.176;8.194;2023-12-14T10:53:33;17.35;;;8.55;;
18443;SDS011;9350;53.176;8.194;2023-12-14T10:56:01;17.25;;;7.95;;
18443;SDS011;9350;53.176;8.194;2023-12-14T10:58:45;16.95;;;8.02;;
18443;SDS011;9350;53.176;8.194;2023-12-14T11:01:13;17.13;;;8.25;;
18443;SDS011;9350;53.176;8.194;2023-12-14T11:03:41;12.38;;;7.07;;
18443;SDS011;9350;53.176;8.194;2023-12-14T11:06:18;14.50;;;7.38;;
18443;SDS011;9350;53.176;8.194;2023-12-14T11:08:47;13.23;;;7.55;;
18443;SDS011;9350;53.176;8.194;2023-12-14T11:11:14;18.05;;;7.10;;
18443;SDS011;9350;53.176;8.194;2023-12-14T11:13:46;18.63;;;8.65;;
18443;SDS011;9350;53.176;8.194;2023-12-14T11:16:17;17.55;;;8.32;;
18443;SDS011;9350;53.176;8.194;2023-12-14T11:18:46;22.75;;;8.00;;
18443;SDS011;9350;53.176;8.194;2023-12-14T11:21:17;16.27;;;7.90;;
18443;SDS011;9350;53.176;8.194;2023-12-14T11:23:46;17.08;;;8.00;;
18443;SDS011;9350;53.176;8.194;2023-12-14T11:26:20;14.95;;;7.45;;
18443;SDS011;9350;53.176;8.194;2023-12-14T11:28:49;15.68;;;7.57;;
18443;SDS011;9350;53.176;8.194;2023-12-14T11:31:16;12.27;;;7.20;;
18443;SDS011;9350;53.176;8.194;2023-12-14T11:33:43;13.77;;;7.18;;
18443;SDS011;9350;53.176;8.194;2023-12-14T11:36:13;18.00;;;7.68;;
18443;SDS011;9350;53.176;8.194;2023-12-14T11:38:40;12.35;;;7.22;;
18443;SDS011;9350;53.176;8.194;2023-12-14T11:41:08;16.38;;;7.95;;
18443;SDS011;9350;53.176;8.194;2023-12-14T11:43:41;18.23;;;7.68;;
18443;SDS011;9350;53.176;8.194;2023-12-14T11:46:10;11.43;;;6.53;;
18443;SDS011;9350;53.176;8.194;2023-12-14T11:48:37;13.52;;;7.40;;
18443;SDS011;9350;53.176;8.194;2023-12-14T11:51:03;11.55;;;6.80;;
18443;SDS011;9350;53.176;8.194;2023-12-14T11:53:30;14.60;;;7.45;;
18443;SDS011;9350;53.176;8.194;2023-12-14T11:55:59;14.45;;;7.18;;
18443;SDS011;9350;53.176;8.194;2023-12-14T11:58:27;13.63;;;7.30;;
18443;SDS011;9350;53.176;8.194;2023-12-14T12:00:54;19.90;;;7.78;;
18443;SDS011;9350;53.176;8.194;2023-12-14T12:03:22;17.73;;;7.38;;
18443;SDS011;9350;53.176;8.194;2023-12-14T12:05:49;14.10;;;6.97;;
18443;SDS011;9350;53.176;8.194;2023-12-14T12:08:18;12.45;;;7.63;;
18443;SDS011;9350;53.176;8.194;2023-12-14T12:10:45;11.20;;;6.60;;
18443;SDS011;9350;53.176;8.194;2023-12-14T12:13:14;16.85;;;7.13;;
18443;SDS011;9350;53.176;8.194;2023-12-14T12:15:41;13.57;;;7.38;;
18443;SDS011;9350;53.176;8.194;2023-12-14T12:18:10;18.55;;;8.32;;
18443;SDS011;9350;53.176;8.194;2023-12-14T12:20:39;15.63;;;7.38;;
18443;SDS011;9350;53.176;8.194;2023-12-14T12:23:07;15.05;;;8.05;;
18443;SDS011;9350;53.176;8.194;2023-12-14T12:25:33;16.00;;;8.02;;
18443;SDS011;9350;53.176;8.194;2023-12-14T12:28:01;19.23;;;7.97;;
18443;SDS011;9350;53.176;8.194;2023-12-14T12:30:29;14.98;;;7.70;;
18443;SDS011;9350;53.176;8.194;2023-12-14T12:32:56;15.82;;;8.05;;
18443;SDS011;9350;53.176;8.194;2023-12-14T12:35:23;18.73;;;7.38;;
18443;SDS011;9350;53.176;8.194;2023-12-14T12:37:52;15.10;;;7.10;;
18443;SDS011;9350;53.176;8.194;2023-12-14T12:40:19;16.30;;;7.43;;
18443;SDS011;9350;53.176;8.194;2023-12-14T12:42:46;12.70;;;6.70;;
18443;SDS011;9350;53.176;8.194;2023-12-14T12:45:14;18.52;;;6.93;;
18443;SDS011;9350;53.176;8.194;2023-12-14T12:47:42;15.20;;;7.47;;
18443;SDS011;9350;53.176;8.194;2023-12-14T12:50:10;15.88;;;7.25;;
18443;SDS011;9350;53.176;8.194;2023-12-14T12:52:36;17.02;;;7.25;;
18443;SDS011;9350;53.176;8.194;2023-12-14T12:55:05;16.20;;;7.90;;
18443;SDS011;9350;53.176;8.194;2023-12-14T12:57:34;17.98;;;7.80;;
18443;SDS011;9350;53.176;8.194;2023-12-14T13:00:01;16.85;;;7.38;;
18443;SDS011;9350;53.176;8.194;2023-12-14T13:02:29;16.30;;;7.80;;
18443;SDS011;9350;53.176;8.194;2023-12-14T13:04:55;18.58;;;7.22;;
18443;SDS011;9350;53.176;8.194;2023-12-14T13:07:22;14.05;;;7.05;;
18443;SDS011;9350;53.176;8.194;2023-12-14T13:09:49;14.88;;;7.35;;
18443;SDS011;9350;53.176;8.194;2023-12-14T13:12:17;17.83;;;6.95;;
18443;SDS011;9350;53.176;8.194;2023-12-14T13:14:44;14.15;;;7.07;;
18443;SDS011;9350;53.176;8.194;2023-12-14T13:17:11;14.65;;;7.03;;
18443;SDS011;9350;53.176;8.194;2023-12-14T13:19:37;18.48;;;7.13;;
18443;SDS011;9350;53.176;8.194;2023-12-14T13:22:04;20.38;;;7.68;;
18443;SDS011;9350;53.176;8.194;2023-12-14T13:24:31;17.15;;;7.90;;
18443;SDS011;9350;53.176;8.194;2023-12-14T13:26:58;16.83;;;7.07;;
18443;SDS011;9350;53.176;8.194;2023-12-14T13:29:26;9.77;;;6.10;;
18443;SDS011;9350;53.176;8.194;2023-12-14T13:31:53;14.45;;;6.90;;
18443;SDS011;9350;53.176;8.194;2023-12-14T13:34:20;15.93;;;7.75;;
18443;SDS011;9350;53.176;8.194;2023-12-14T13:36:47;15.20;;;7.65;;
18443;SDS011;9350;53.176;8.194;2023-12-14T13:39:15;14.10;;;7.57;;
18443;SDS011;9350;53.176;8.194;2023-12-14T13:41:42;14.65;;;7.60;;
18443;SDS011;9350;53.176;8.194;2023-12-14T13:44:09;16.40;;;7.00;;
18443;SDS011;9350;53.176;8.194;2023-12-14T13:46:37;14.95;;;7.30;;
18443;SDS011;9350;53.176;8.194;2023-12-14T13:49:04;17.35;;;8.10;;
18443;SDS011;9350;53.176;8.194;2023-12-14T13:51:30;13.93;;;7.53;;
18443;SDS011;9350;53.176;8.194;2023-12-14T13:53:57;13.70;;;7.07;;
18443;SDS011;9350;53.176;8.194;2023-12-14T13:56:24;13.45;;;7.47;;
18443;SDS011;9350;53.176;8.194;2023-12-14T13:58:51;15.05;;;7.45;;
18443;SDS011;9350;53.176;8.194;2023-12-14T14:01:17;15.23;;;7.93;;
18443;SDS011;9350;53.176;8.194;2023-12-14T14:03:46;15.50;;;7.43;;
18443;SDS011;9350;53.176;8.194;2023-12-14T14:06:13;15.57;;;7.15;;
18443;SDS011;9350;53.176;8.194;2023-12-14T14:08:40;12.10;;;6.72;;
18443;SDS011;9350;53.176;8.194;2023-12-14T14:11:06;16.48;;;8.20;;
18443;SDS011;9350;53.176;8.194;2023-12-14T14:13:33;16.42;;;7.90;;
18443;SDS011;9350;53.176;8.194;2023-12-14T14:16:00;15.93;;;8.00;;
18443;SDS011;9350;53.176;8.194;2023-12-14T14:18:27;17.25;;;7.18;;
18443;SDS011;9350;53.176;8.194;2023-12-14T14:20:55;13.60;;;7.30;;
18443;SDS011;9350;53.176;8.194;2023-12-14T14:23:22;17.10;;;7.68;;
18443;SDS011;9350;53.176;8.194;2023-12-14T14:25:49;19.08;;;7.88;;
18443;SDS011;9350;53.176;8.194;2023-12-14T14:28:19;16.92;;;7.93;;
18443;SDS011;9350;53.176;8.194;2023-12-14T14:30:46;12.57;;;7.70;;
18443;SDS011;9350;53.176;8.194;2023-12-14T14:33:13;13.15;;;7.47;;
18443;SDS011;9350;53.176;8.194;2023-12-14T14:35:43;15.48;;;8.00;;
18443;SDS011;9350;53.176;8.194;2023-12-14T14:38:11;17.27;;;7.75;;
18443;SDS011;9350;53.176;8.194;2023-12-14T14:40:38;21.83;;;9.30;;
18443;SDS011;9350;53.176;8.194;2023-12-14T14:43:06;16.83;;;7.70;;
18443;SDS011;9350;53.176;8.194;2023-12-14T14:45:32;15.55;;;8.02;;
18443;SDS011;9350;53.176;8.194;2023-12-14T14:47:59;21.83;;;8.23;;
18443;SDS011;9350;53.176;8.194;2023-12-14T14:50:26;20.00;;;8.18;;
18443;SDS011;9350;53.176;8.194;2023-12-14T14:52:53;18.92;;;8.20;;
18443;SDS011;9350;53.176;8.194;2023-12-14T14:55:21;14.95;;;8.18;;